createdAt,value
2024-03-06T00:00:41.448Z,49.70
2024-03-06T00:03:34.809Z,46.90
2024-03-06T00:06:08.644Z,51.60
2024-03-06T00:08:41.875Z,58.40
2024-03-06T00:11:15.197Z,62.60
2024-03-06T00:13:49.154Z,59.20
2024-03-06T00:16:22.503Z,54.10
2024-03-06T00:18:55.671Z,52.50
2024-03-06T00:21:29.828Z,64.30
2024-03-06T00:24:03.329Z,57.50
2024-03-06T00:26:36.511Z,38.50
2024-03-06T00:29:10.863Z,40.20
2024-03-06T00:31:48.348Z,36.80
2024-03-06T00:34:21.587Z,37.90
2024-03-06T00:36:55.619Z,39.70
2024-03-06T00:39:28.874Z,40.80
2024-03-06T00:42:02.154Z,38.90
2024-03-06T00:44:35.354Z,35.40
2024-03-06T00:47:08.965Z,44.30
2024-03-06T00:49:43.420Z,42.00
2024-03-06T00:52:17.462Z,38.30
2024-03-06T00:54:50.640Z,42.90
2024-03-06T00:57:23.798Z,35.50
2024-03-06T00:59:57.593Z,39.30
2024-03-06T01:02:30.776Z,39.40
2024-03-06T01:05:05.511Z,54.20
2024-03-06T01:07:41.515Z,41.00
2024-03-06T01:10:15.086Z,40.00
2024-03-06T01:12:48.673Z,34.00
2024-03-06T01:15:22.101Z,34.30
2024-03-06T01:17:55.284Z,37.40
2024-03-06T01:20:28.670Z,31.30
2024-03-06T01:23:02.253Z,31.10
2024-03-06T01:25:35.639Z,32.90
2024-03-06T01:28:09.620Z,34.40
2024-03-06T01:30:43.032Z,34.10
2024-03-06T01:33:16.303Z,34.80
2024-03-06T01:35:49.495Z,39.90
2024-03-06T01:38:22.872Z,37.30
2024-03-06T01:40:56.208Z,43.90
2024-03-06T01:43:30.049Z,48.40
2024-03-06T01:46:07.191Z,44.30
2024-03-06T01:48:40.547Z,41.20
2024-03-06T01:51:14.154Z,44.20
2024-03-06T01:53:47.592Z,35.70
2024-03-06T01:56:21.711Z,45.20
2024-03-06T01:58:58.225Z,42.70
2024-03-06T02:01:32.040Z,39.00
2024-03-06T02:04:06.577Z,45.20
2024-03-06T02:06:42.033Z,42.40
2024-03-06T02:09:16.638Z,47.70
2024-03-06T02:11:51.324Z,48.90
2024-03-06T02:14:25.302Z,47.00
2024-03-06T02:16:58.616Z,50.00
2024-03-06T02:19:44.064Z,50.50
2024-03-06T02:22:17.658Z,44.90
2024-03-06T02:24:53.310Z,37.10
2024-03-06T02:27:26.497Z,34.30
2024-03-06T02:29:59.745Z,35.30
2024-03-06T02:32:33.090Z,26.30
2024-03-06T02:35:10.176Z,31.80
2024-03-06T02:37:45.904Z,27.10
2024-03-06T02:40:19.426Z,19.90
2024-03-06T02:42:52.727Z,25.40
2024-03-06T02:45:26.058Z,29.70
2024-03-06T02:47:59.379Z,29.80
2024-03-06T02:50:32.596Z,30.50
2024-03-06T02:53:06.095Z,31.30
2024-03-06T02:55:39.346Z,26.00
2024-03-06T02:58:12.599Z,31.50
2024-03-06T03:00:46.582Z,34.20
2024-03-06T03:03:21.119Z,23.50
2024-03-06T03:05:54.500Z,26.10
2024-03-06T03:08:27.798Z,33.50
2024-03-06T03:11:01.007Z,30.30
2024-03-06T03:13:34.320Z,31.70
2024-03-06T03:16:08.813Z,29.20
2024-03-06T03:18:41.933Z,30.40
2024-03-06T03:21:15.193Z,30.20
2024-03-06T03:23:48.431Z,34.80
2024-03-06T03:26:21.952Z,29.40
2024-03-06T03:28:56.924Z,24.00
2024-03-06T03:31:30.185Z,26.40
2024-03-06T03:34:03.420Z,30.70
2024-03-06T03:36:38.236Z,32.70
2024-03-06T03:39:16.986Z,32.40
2024-03-06T03:41:51.288Z,33.40
2024-03-06T03:44:24.815Z,39.20
2024-03-06T03:46:58.351Z,33.40
2024-03-06T03:49:31.652Z,31.10
2024-03-06T03:52:05.329Z,28.90
2024-03-06T03:54:38.470Z,31.40
2024-03-06T03:57:12.089Z,20.00
2024-03-06T03:59:45.353Z,28.00
2024-03-06T04:02:19.369Z,28.10
2024-03-06T04:04:52.865Z,26.90
2024-03-06T04:07:26.042Z,27.00
2024-03-06T04:09:59.917Z,29.50
2024-03-06T04:12:33.220Z,28.10
2024-03-06T04:15:07.552Z,31.30
2024-03-06T04:17:42.336Z,35.40
2024-03-06T04:20:17.181Z,33.70
2024-03-06T04:22:52.213Z,17.60
2024-03-06T04:25:26.162Z,17.80
2024-03-06T04:27:59.343Z,30.20
2024-03-06T04:30:32.498Z,26.30
2024-03-06T04:33:05.921Z,19.60
2024-03-06T04:35:39.130Z,27.10
2024-03-06T04:38:12.345Z,27.50
2024-03-06T04:40:46.377Z,27.00
2024-03-06T04:43:19.980Z,21.50
2024-03-06T04:45:53.190Z,27.80
2024-03-06T04:48:26.798Z,26.30
2024-03-06T04:51:00.101Z,33.80
2024-03-06T04:53:33.631Z,21.60
2024-03-06T04:56:08.697Z,27.10
2024-03-06T04:58:42.453Z,24.60
2024-03-06T05:01:16.974Z,23.50
2024-03-06T05:58:09.450Z,25.00
2024-03-06T06:00:43.382Z,28.00
2024-03-06T06:03:17.750Z,30.60
2024-03-06T06:05:52.318Z,47.10
2024-03-06T06:08:25.875Z,25.90
2024-03-06T06:10:59.218Z,27.20
2024-03-06T06:13:32.722Z,20.60
2024-03-06T06:16:06.848Z,22.00
2024-03-06T06:18:43.076Z,22.30
2024-03-06T06:21:17.436Z,26.30
2024-03-06T06:23:50.550Z,29.10
2024-03-06T06:26:24.271Z,34.90
2024-03-06T06:28:57.618Z,26.50
2024-03-06T06:31:30.957Z,19.00
2024-03-06T06:34:04.430Z,22.00
2024-03-06T06:36:38.865Z,25.40
2024-03-06T06:39:13.483Z,22.30
2024-03-06T06:41:46.777Z,22.60
2024-03-06T06:44:20.251Z,27.60
2024-03-06T06:46:53.575Z,23.10
2024-03-06T06:49:26.876Z,29.20
2024-03-06T06:52:00.610Z,24.90
2024-03-06T06:54:34.070Z,30.70
2024-03-06T06:57:07.294Z,32.80
2024-03-06T06:59:40.654Z,28.20
2024-03-06T07:02:14.048Z,30.80
2024-03-06T07:04:47.611Z,30.40
2024-03-06T07:07:20.894Z,30.70
2024-03-06T07:09:54.084Z,42.00
2024-03-06T07:12:28.060Z,35.60
2024-03-06T07:15:01.461Z,31.80
2024-03-06T07:17:34.842Z,28.70
2024-03-06T07:20:11.575Z,27.10
2024-03-06T07:22:44.797Z,26.50
2024-03-06T07:25:18.301Z,30.10
2024-03-06T07:27:51.557Z,24.00
2024-03-06T07:30:25.154Z,29.30
2024-03-06T07:32:58.905Z,33.30
2024-03-06T07:35:32.237Z,24.60
2024-03-06T07:38:06.239Z,23.50
2024-03-06T07:40:39.477Z,30.60
2024-03-06T07:43:13.093Z,27.10
2024-03-06T07:45:46.415Z,38.40
2024-03-06T07:48:19.732Z,28.80
2024-03-06T07:50:52.933Z,30.40
2024-03-06T07:53:26.754Z,26.40
2024-03-06T07:55:59.369Z,31.70
2024-03-06T07:58:32.282Z,32.20
2024-03-06T08:01:04.853Z,30.40
2024-03-06T08:03:37.524Z,25.00
2024-03-06T08:06:11.028Z,23.70
2024-03-06T08:08:46.466Z,22.20
2024-03-06T08:11:18.981Z,32.90
2024-03-06T08:13:52.519Z,27.60
2024-03-06T08:16:24.729Z,18.90
2024-03-06T08:18:57.544Z,25.60
2024-03-06T08:21:30.137Z,24.80
2024-03-06T08:24:02.386Z,25.70
2024-03-06T08:26:34.710Z,34.40
2024-03-06T08:29:07.870Z,23.10
2024-03-06T08:31:40.184Z,33.80
2024-03-06T08:34:12.717Z,25.10
2024-03-06T08:36:44.952Z,26.20
2024-03-06T08:39:17.607Z,27.20
2024-03-06T08:41:50.040Z,32.60
2024-03-06T08:44:22.540Z,31.10
2024-03-06T08:46:54.840Z,39.60
2024-03-06T08:49:27.072Z,27.00
2024-03-06T08:51:59.342Z,25.50
2024-03-06T08:54:32.236Z,39.10
2024-03-06T08:57:04.626Z,24.00
2024-03-06T08:59:37.030Z,45.00
2024-03-06T09:02:20.804Z,27.70
2024-03-06T09:04:53.921Z,32.40
2024-03-06T09:07:26.941Z,28.70
2024-03-06T09:09:59.258Z,22.80
2024-03-06T09:12:31.899Z,25.20
2024-03-06T09:15:05.394Z,30.50
2024-03-06T09:17:37.741Z,30.90
2024-03-06T09:20:14.076Z,28.20
2024-03-06T09:22:47.916Z,28.00
2024-03-06T09:25:20.524Z,24.50
2024-03-06T09:27:53.095Z,29.50
2024-03-06T09:30:25.470Z,26.90
2024-03-06T09:32:58.097Z,29.90
2024-03-06T09:35:30.810Z,25.00
2024-03-06T09:38:03.283Z,27.90
2024-03-06T09:40:35.521Z,27.80
2024-03-06T09:43:08.966Z,28.90
2024-03-06T09:45:41.367Z,29.20
2024-03-06T09:48:14.230Z,28.10
2024-03-06T09:50:49.134Z,23.90
2024-03-06T09:53:23.863Z,34.00
2024-03-06T09:55:58.614Z,24.10
2024-03-06T09:58:30.976Z,30.20
2024-03-06T10:01:08.320Z,29.20
2024-03-06T10:03:42.291Z,29.30
2024-03-06T10:06:15.164Z,29.60
2024-03-06T10:08:50.530Z,30.30
2024-03-06T10:11:23.299Z,31.70
2024-03-06T10:13:57.797Z,28.60
2024-03-06T10:16:29.974Z,32.80
2024-03-06T10:19:19.467Z,25.50
2024-03-06T10:21:53.860Z,31.00
2024-03-06T10:24:27.992Z,32.80
2024-03-06T10:27:02.009Z,32.20
2024-03-06T10:29:36.591Z,31.40
2024-03-06T10:32:10.282Z,35.40
2024-03-06T10:34:43.268Z,35.90
2024-03-06T10:37:16.318Z,24.10
2024-03-06T10:39:52.854Z,42.20
2024-03-06T10:42:29.676Z,35.20
2024-03-06T10:45:07.262Z,24.00
2024-03-06T10:47:42.153Z,39.40
2024-03-06T10:50:18.978Z,32.00
2024-03-06T10:52:56.389Z,32.10
2024-03-06T10:55:35.493Z,29.20
2024-03-06T10:58:10.704Z,35.60
2024-03-06T11:00:47.425Z,22.10
2024-03-06T11:03:20.136Z,24.20
2024-03-06T11:05:53.320Z,28.20
2024-03-06T11:08:26.711Z,28.20
2024-03-06T11:11:26.455Z,25.70
2024-03-06T11:14:05.888Z,34.70
2024-03-06T11:17:03.168Z,37.50
2024-03-06T11:19:56.630Z,32.30
2024-03-06T11:23:11.554Z,27.50
2024-03-06T11:26:07.102Z,26.40
2024-03-06T11:28:42.318Z,30.90
2024-03-06T11:31:19.954Z,23.70
2024-03-06T11:33:57.766Z,29.60
2024-03-06T11:36:31.423Z,30.10
2024-03-06T11:39:07.785Z,29.70
2024-03-06T11:41:54.428Z,32.40
2024-03-06T11:44:30.922Z,38.40
2024-03-06T11:47:05.901Z,27.60
2024-03-06T11:49:40.043Z,34.80
2024-03-06T11:52:13.192Z,35.20
2024-03-06T11:54:45.541Z,33.90
2024-03-06T11:57:21.768Z,29.70
2024-03-06T11:59:56.684Z,35.10
2024-03-06T12:02:29.440Z,34.90
2024-03-06T12:05:06.993Z,30.60
2024-03-06T12:07:51.638Z,41.50
2024-03-06T12:10:24.617Z,41.30
2024-03-06T12:12:56.805Z,45.20
2024-03-06T12:15:29.074Z,30.30
2024-03-06T12:18:01.988Z,33.60
2024-03-06T12:20:34.453Z,41.90
2024-03-06T12:23:06.930Z,36.60
2024-03-06T12:25:39.563Z,35.90
2024-03-06T12:28:13.505Z,46.00
2024-03-06T12:30:47.684Z,47.80
2024-03-06T12:33:22.924Z,38.00
2024-03-06T12:36:11.895Z,51.30
2024-03-06T12:38:44.673Z,34.90
2024-03-06T12:41:17.322Z,30.90
2024-03-06T12:43:49.834Z,47.60
2024-03-06T12:46:22.504Z,44.60
2024-03-06T12:48:55.486Z,36.30
2024-03-06T12:51:28.059Z,46.00
2024-03-06T12:54:00.420Z,41.10
2024-03-06T12:56:34.874Z,37.10
2024-03-06T12:59:07.144Z,42.60
2024-03-06T13:01:39.416Z,38.70
2024-03-06T13:04:13.337Z,52.50
2024-03-06T13:06:46.449Z,37.40
2024-03-06T13:09:19.067Z,40.00
2024-03-06T13:11:51.555Z,39.20
2024-03-06T13:14:23.853Z,45.50
2024-03-06T13:16:57.169Z,55.00
2024-03-06T13:19:30.278Z,41.10
2024-03-06T13:22:05.567Z,52.90
2024-03-06T13:24:42.177Z,46.60
2024-03-06T13:27:16.844Z,56.40
2024-03-06T13:29:49.177Z,57.70
2024-03-06T13:32:21.695Z,39.70
2024-03-06T13:34:54.204Z,45.50
2024-03-06T13:37:26.773Z,48.10
2024-03-06T13:40:02.085Z,52.30
2024-03-06T13:42:34.684Z,58.40
2024-03-06T13:45:12.804Z,54.00
2024-03-06T13:47:47.146Z,54.80
2024-03-06T13:50:23.190Z,49.40
2024-03-06T13:52:55.574Z,55.30
2024-03-06T13:55:29.969Z,46.10
2024-03-06T13:58:05.089Z,40.50
2024-03-06T14:00:38.022Z,57.70
2024-03-06T14:03:13.085Z,61.60
2024-03-06T14:05:46.857Z,57.30
2024-03-06T14:08:22.493Z,56.60
2024-03-06T14:10:55.383Z,61.20
2024-03-06T14:13:31.700Z,59.50
2024-03-06T14:16:04.992Z,52.10
2024-03-06T14:18:37.856Z,43.60
2024-03-06T14:21:11.697Z,46.80
2024-03-06T14:23:45.222Z,45.70
2024-03-06T14:26:18.512Z,53.50
2024-03-06T14:28:51.770Z,57.40
2024-03-06T14:31:29.640Z,56.20
2024-03-06T14:34:06.165Z,52.10
2024-03-06T14:36:39.516Z,54.30
2024-03-06T14:39:23.602Z,51.90
2024-03-06T14:41:59.439Z,59.10
2024-03-06T14:44:32.010Z,65.30
2024-03-06T14:47:04.474Z,56.40
2024-03-06T14:49:37.023Z,48.90
2024-03-06T14:52:10.229Z,59.80
2024-03-06T14:54:44.891Z,51.20
2024-03-06T14:57:17.877Z,47.00
2024-03-06T14:59:51.217Z,54.60
2024-03-06T15:02:23.618Z,44.10
2024-03-06T15:04:56.015Z,45.80
2024-03-06T15:07:28.395Z,60.00
2024-03-06T15:10:00.641Z,38.90
2024-03-06T15:12:32.943Z,60.10
2024-03-06T15:15:07.597Z,52.00
2024-03-06T15:17:40.957Z,63.00
2024-03-06T15:20:16.296Z,42.30
2024-03-06T15:22:48.913Z,47.60
2024-03-06T15:25:22.963Z,42.80
2024-03-06T15:27:55.142Z,35.90
2024-03-06T15:30:29.281Z,38.60
2024-03-06T15:33:01.750Z,38.80
2024-03-06T15:35:34.166Z,40.80
2024-03-06T15:38:06.850Z,49.90
2024-03-06T15:40:39.561Z,44.60
2024-03-06T15:43:11.839Z,34.50
2024-03-06T15:45:44.483Z,36.00
2024-03-06T15:48:16.984Z,39.60
2024-03-06T15:50:49.823Z,39.40
2024-03-06T15:53:29.411Z,36.00
2024-03-06T15:56:01.780Z,36.70
2024-03-06T15:58:34.240Z,36.90
2024-03-06T16:01:07.624Z,47.80
2024-03-06T16:03:39.811Z,37.90
2024-03-06T16:06:18.241Z,35.70
2024-03-06T16:08:51.974Z,30.00
2024-03-06T16:11:24.367Z,38.70
2024-03-06T16:14:00.254Z,48.30
2024-03-06T16:16:32.616Z,46.30
2024-03-06T16:19:04.902Z,42.80
2024-03-06T16:21:38.328Z,46.00
2024-03-06T16:24:11.791Z,44.80
2024-03-06T16:26:44.141Z,44.80
2024-03-06T16:29:16.499Z,44.30
2024-03-06T16:31:50.428Z,40.90
2024-03-06T16:34:25.469Z,44.50
2024-03-06T16:36:58.099Z,49.50
2024-03-06T16:39:30.844Z,43.40
2024-03-06T16:42:04.972Z,49.30
2024-03-06T16:44:38.700Z,48.90
2024-03-06T16:47:11.076Z,45.30
2024-03-06T16:49:43.176Z,49.10
2024-03-06T16:52:15.329Z,41.40
2024-03-06T16:54:48.141Z,41.80
2024-03-06T16:57:20.354Z,41.70
2024-03-06T16:59:52.690Z,46.30
2024-03-06T17:02:25.010Z,44.60
2024-03-06T17:04:58.386Z,44.20
2024-03-06T17:07:31.585Z,40.70
2024-03-06T17:10:06.127Z,36.70
2024-03-06T17:12:39.618Z,44.80
2024-03-06T17:15:13.970Z,38.60
2024-03-06T17:17:47.219Z,44.20
2024-03-06T17:20:21.157Z,31.60
2024-03-06T17:22:56.867Z,44.50
2024-03-06T17:25:30.239Z,38.90
2024-03-06T17:28:03.580Z,46.60
2024-03-06T17:30:37.067Z,31.70
2024-03-06T17:33:10.649Z,33.60
2024-03-06T17:35:44.220Z,22.30
2024-03-06T17:38:18.582Z,31.50
2024-03-06T17:40:51.973Z,42.20
2024-03-06T17:43:25.126Z,31.30
2024-03-06T17:45:58.456Z,26.80
2024-03-06T17:48:32.043Z,22.70
2024-03-06T17:51:05.812Z,38.30
2024-03-06T17:53:39.135Z,29.50
2024-03-06T17:56:13.613Z,31.60
2024-03-06T17:58:46.737Z,32.70
2024-03-06T18:01:21.494Z,27.80
2024-03-06T18:03:55.851Z,33.60
2024-03-06T18:06:29.007Z,27.20
2024-03-06T18:09:02.273Z,21.10
2024-03-06T18:11:35.577Z,33.50
2024-03-06T18:14:09.430Z,32.30
2024-03-06T18:16:44.358Z,25.40
2024-03-06T18:19:17.891Z,31.30
2024-03-06T18:21:51.036Z,27.00
2024-03-06T18:24:25.110Z,26.50
2024-03-06T18:26:59.644Z,27.30
2024-03-06T18:29:32.926Z,29.40
2024-03-06T18:32:09.364Z,27.40
2024-03-06T18:34:44.247Z,25.50
2024-03-06T18:37:17.627Z,20.90
2024-03-06T18:39:51.215Z,32.60
2024-03-06T18:42:24.494Z,30.40
2024-03-06T18:44:57.846Z,31.00
2024-03-06T18:47:31.118Z,32.10
2024-03-06T18:50:05.622Z,27.60
2024-03-06T18:52:39.664Z,39.50
2024-03-06T18:55:13.882Z,39.10
2024-03-06T18:57:47.189Z,28.50
2024-03-06T19:00:24.193Z,40.90
2024-03-06T19:02:57.531Z,35.30
2024-03-06T19:05:30.886Z,37.50
2024-03-06T19:08:04.128Z,37.20
2024-03-06T19:10:37.423Z,22.30
2024-03-06T19:13:10.846Z,39.20
2024-03-06T19:15:44.168Z,39.30
2024-03-06T19:18:17.435Z,45.70
2024-03-06T19:20:51.215Z,35.50
2024-03-06T19:23:24.486Z,37.70
2024-03-06T19:25:57.943Z,21.00
2024-03-06T19:28:31.141Z,35.10
2024-03-06T19:31:04.566Z,46.00
2024-03-06T19:33:37.883Z,34.30
2024-03-06T19:36:11.433Z,30.80
2024-03-06T19:38:44.743Z,32.80
2024-03-06T19:41:18.289Z,36.90
2024-03-06T19:43:51.898Z,43.60
2024-03-06T19:46:25.038Z,44.10
2024-03-06T19:48:58.504Z,32.70
2024-03-06T19:51:31.705Z,26.20
2024-03-06T19:54:08.365Z,38.60
2024-03-06T19:56:41.682Z,37.90
2024-03-06T19:59:15.181Z,29.40
2024-03-06T20:01:48.510Z,28.00
2024-03-06T20:04:21.949Z,37.80
2024-03-06T20:06:55.229Z,35.50
2024-03-06T20:09:29.387Z,31.10
2024-03-06T20:12:03.244Z,25.80
2024-03-06T20:14:37.089Z,27.80
2024-03-06T20:17:10.967Z,31.50
2024-03-06T20:19:46.921Z,32.50
2024-03-06T20:22:20.141Z,35.00
2024-03-06T20:24:53.499Z,29.10
2024-03-06T20:27:27.665Z,31.50
2024-03-06T20:30:00.814Z,27.00
2024-03-06T20:32:34.160Z,37.20
2024-03-06T20:35:08.965Z,28.60
2024-03-06T20:37:42.715Z,37.50
2024-03-06T20:40:17.413Z,25.10
2024-03-06T20:42:50.693Z,27.90
2024-03-06T20:45:23.910Z,31.90
2024-03-06T20:48:02.049Z,36.00
2024-03-06T20:50:36.291Z,30.20
2024-03-06T20:53:09.876Z,24.90
2024-03-06T20:55:46.952Z,35.90
2024-03-06T20:58:20.434Z,27.30
2024-03-06T21:00:53.694Z,28.90
2024-03-06T21:03:27.129Z,33.20
2024-03-06T21:06:00.578Z,33.10
2024-03-06T21:08:34.116Z,34.40
2024-03-06T21:11:08.823Z,30.90
2024-03-06T21:13:42.280Z,31.80
2024-03-06T21:16:15.437Z,25.30
2024-03-06T21:18:48.616Z,33.10
2024-03-06T21:21:21.777Z,21.30
2024-03-06T21:23:54.956Z,20.40
2024-03-06T21:26:28.346Z,26.80
2024-03-06T21:29:02.190Z,25.90
2024-03-06T21:31:36.208Z,24.80
2024-03-06T21:34:09.350Z,31.70
2024-03-06T21:36:42.727Z,22.90
2024-03-06T21:39:16.240Z,28.30
2024-03-06T21:41:49.468Z,31.60
2024-03-06T21:44:23.668Z,24.60
2024-03-06T21:46:57.968Z,30.70
2024-03-06T21:49:35.411Z,22.90
2024-03-06T21:52:13.163Z,26.50
2024-03-06T21:54:46.431Z,31.20
2024-03-06T21:57:19.608Z,31.00
2024-03-06T21:59:52.870Z,14.60
2024-03-06T22:02:26.724Z,25.50
2024-03-06T22:05:00.034Z,28.50
2024-03-06T22:07:33.215Z,31.00
2024-03-06T22:10:08.938Z,30.30
2024-03-06T22:12:42.519Z,35.80
2024-03-06T22:15:15.912Z,31.20
2024-03-06T22:17:49.877Z,19.50
2024-03-06T22:20:24.027Z,29.10
2024-03-06T22:22:57.369Z,30.50
2024-03-06T22:25:31.171Z,35.30
2024-03-06T22:28:04.572Z,27.40
2024-03-06T22:30:39.157Z,32.50
2024-03-06T22:33:12.540Z,35.00
2024-03-06T22:35:46.395Z,43.30
2024-03-06T22:38:19.628Z,34.60
2024-03-06T22:40:52.984Z,38.20
2024-03-06T22:43:26.210Z,36.10
2024-03-06T22:45:59.671Z,38.20
2024-03-06T22:48:33.039Z,34.40
2024-03-06T22:51:07.193Z,29.80
2024-03-06T22:53:40.937Z,36.00
2024-03-06T22:56:15.076Z,40.20
2024-03-06T22:58:48.701Z,34.20
2024-03-06T23:01:21.924Z,32.20
2024-03-06T23:03:55.391Z,43.10
2024-03-06T23:06:28.684Z,39.90
2024-03-06T23:09:02.063Z,26.40
2024-03-06T23:11:35.400Z,36.00
2024-03-06T23:14:08.830Z,38.50
2024-03-06T23:16:42.584Z,28.60
2024-03-06T23:19:16.199Z,31.10
2024-03-06T23:21:49.371Z,35.10
2024-03-06T23:24:22.564Z,40.80
2024-03-06T23:26:56.159Z,30.20
2024-03-06T23:29:29.376Z,28.10
2024-03-06T23:32:02.565Z,30.70
2024-03-06T23:34:35.784Z,38.40
2024-03-06T23:37:09.227Z,30.40
2024-03-06T23:39:42.479Z,28.40
2024-03-06T23:42:15.784Z,32.00
2024-03-06T23:44:49.321Z,29.10
2024-03-06T23:47:22.575Z,32.90
2024-03-06T23:49:55.809Z,32.50
2024-03-06T23:52:29.834Z,31.20
2024-03-06T23:55:03.550Z,30.50
2024-03-06T23:57:37.678Z,30.70
